Time;durP1;ratioP1;P1;durP2;ratioP2;P2;SDS_P1;SDS_P2;PMS_P1;PMS_P2;Temp;Humidity;BMP_temperature;BMP_pressure;BME280_temperature;BME280_humidity;BME280_pressure;Samples;Min_cycle;Max_cycle;Signal;HPM_P1;HPM_P2
2021/08/14 00:01:16;;;;;;;;;;;;;;;;;;5043854;28;19925;-68
2021/08/14 00:03:43;;;;;;;;;;;;;;;;;;5047418;28;19939;-69
2021/08/14 00:06:11;;;;;;;;;;;;;;;;;;5047452;28;19932;-70
2021/08/14 00:08:38;;;;;;;;;;;;;;;;;;5045192;28;19931;-69
2021/08/14 00:11:05;;;;;;;;;;;;;;;;;;5051636;28;19924;-69
2021/08/14 00:13:32;;;;;;;;;;;;;;;;;;5044958;28;19963;-69
2021/08/14 00:15:59;;;;;;;;;;;;;;;;;;5046540;28;19935;-69
2021/08/14 00:18:26;;;;;;;;;;;;;;;;;;5053329;28;19940;-69
2021/08/14 00:20:53;;;;;;;;;;;;;;;;;;5049644;28;19925;-70
2021/08/14 00:23:20;;;;;;;;;;;;;;;;;;5050015;28;20385;-70
2021/08/14 00:25:47;;;;;;;;;;;;;;;;;;5048310;28;19925;-70
2021/08/14 00:28:14;;;;;;;;;;;;;;;;;;5049453;28;19933;-69
2021/08/14 00:30:41;;;;;;;;;;;;;;;;;;5050490;28;19929;-69
2021/08/14 00:33:08;;;;;;;;;;;;;;;;;;5050784;28;19936;-69
2021/08/14 00:35:37;;;;;;;;;;;;;;;;;;5048583;28;19932;-70
2021/08/14 00:38:04;;;;;;;;;;;;;;;;;;5054250;28;19928;-69
2021/08/14 00:40:31;;;;;;;;;;;;;;;;;;5049560;28;19925;-69
2021/08/14 00:42:58;;;;;;;;;;;;;;;;;;5050506;28;19968;-69
2021/08/14 00:45:25;;;;;;;;;;;;;;;;;;5050845;28;19954;-69
2021/08/14 00:47:52;;;;;;;;;;;;;;;;;;5049982;28;19929;-69
2021/08/14 00:50:19;;;;;;;;;;;;;;;;;;5051332;28;19933;-69
2021/08/14 00:52:46;;;;;;;;;;;;;;;;;;5051081;28;19925;-69
2021/08/14 00:55:13;;;;;;;;;;;;;;;;;;5052344;28;19925;-69
2021/08/14 00:57:40;;;;;;;;;;;;;;;;;;5048555;28;19928;-69
2021/08/14 01:00:07;;;;;;;;;;;;;;;;;;5050276;28;19935;-69
2021/08/14 01:02:34;;;;;;;;;;;;;;;;;;5052418;28;19928;-69
2021/08/14 01:05:01;;;;;;;;;;;;;;;;;;5049062;28;20015;-69
2021/08/14 01:07:28;;;;;;;;;;;;;;;;;;5049987;28;19929;-69
2021/08/14 01:09:55;;;;;;;;;;;;;;;;;;5047004;28;19931;-70
2021/08/14 01:12:22;;;;;;;;;;;;;;;;;;5050201;28;19928;-70
2021/08/14 01:14:49;;;;;;;;;;;;;;;;;;5046500;28;19924;-70
2021/08/14 01:17:16;;;;;;;;;;;;;;;;;;5051606;28;19925;-70
2021/08/14 01:19:43;;;;;;;;;;;;;;;;;;5053242;28;19939;-70
2021/08/14 01:22:10;;;;;;;;;;;;;;;;;;5048465;28;20008;-70
2021/08/14 01:24:37;;;;;;;;;;;;;;;;;;5050261;28;19925;-70
2021/08/14 01:27:04;;;;;;;;;;;;;;;;;;5046598;28;19932;-70
2021/08/14 01:29:31;;;;;;;;;;;;;;;;;;5053900;28;20304;-70
2021/08/14 01:31:58;;;;;;;;;;;;;;;;;;5048482;28;20003;-70
2021/08/14 01:34:25;;;;;;;;;;;;;;;;;;5051121;28;19924;-69
2021/08/14 01:36:52;;;;;;;;;;;;;;;;;;5051165;28;20320;-70
2021/08/14 01:39:19;;;;;;;;;;;;;;;;;;5048399;28;19932;-70
2021/08/14 01:41:46;;;;;;;;;;;;;;;;;;5040858;28;19929;-70
2021/08/14 01:44:13;;;;;;;;;;;;;;;;;;5048393;28;19965;-70
2021/08/14 01:46:42;;;;;;;;;;;;;;;;;;5049647;28;20154;-70
2021/08/14 01:49:09;;;;;;;;;;;;;;;;;;5052314;28;19931;-69
2021/08/14 01:51:36;;;;;;;;;;;;;;;;;;5044585;28;19925;-69
2021/08/14 01:54:04;;;;;;;;;;;;;;;;;;5046341;28;19976;-69
2021/08/14 01:56:31;;;;;;;;;;;;;;;;;;5050110;28;19994;-69
2021/08/14 01:58:58;;;;;;;;;;;;;;;;;;5048981;28;19925;-69
2021/08/14 02:01:25;;;;;;;;;;;;;;;;;;5051976;28;19929;-70
2021/08/14 02:03:52;;;;;;;;;;;;;;;;;;5049574;28;19943;-69
2021/08/14 02:06:19;;;;;;;;;;;;;;;;;;5048796;28;19924;-69
2021/08/14 02:08:46;;;;;;;;;;;;;;;;;;5043970;28;19928;-70
2021/08/14 02:11:12;;;;;;;;;;;;;;;;;;5044515;28;19932;-69
2021/08/14 02:13:39;;;;;;;;;;;;;;;;;;5047596;28;19939;-69
2021/08/14 02:16:06;;;;;;;;;;;;;;;;;;5045309;28;19925;-70
2021/08/14 02:18:33;;;;;;;;;;;;;;;;;;5045398;28;19929;-70
2021/08/14 02:21:00;;;;;;;;;;;;;;;;;;5053772;28;19929;-70
2021/08/14 02:23:27;;;;;;;;;;;;;;;;;;5040086;28;19931;-70
2021/08/14 02:25:54;;;;;;;;;;;;;;;;;;5047442;28;19924;-68
2021/08/14 02:28:21;;;;;;;;;;;;;;;;;;5046943;28;19935;-69
2021/08/14 02:30:48;;;;;;;;;;;;;;;;;;5045943;28;19951;-68
2021/08/14 02:33:15;;;;;;;;;;;;;;;;;;5048111;28;20385;-69
2021/08/14 02:35:42;;;;;;;;;;;;;;;;;;5044267;28;19931;-69
2021/08/14 02:38:09;;;;;;;;;;;;;;;;;;5048165;28;19929;-71
2021/08/14 02:40:36;;;;;;;;;;;;;;;;;;5045685;28;19928;-70
2021/08/14 02:43:03;;;;;;;;;;;;;;;;;;5042102;28;19944;-69
2021/08/14 02:45:30;;;;;;;;;;;;;;;;;;5043145;28;19931;-70
2021/08/14 02:47:57;;;;;;;;;;;;;;;;;;5051185;28;20402;-69
2021/08/14 02:50:24;;;;;;;;;;;;;;;;;;5048490;28;20337;-69
2021/08/14 02:52:51;;;;;;;;;;;;;;;;;;5048440;28;19925;-69
2021/08/14 02:55:18;;;;;;;;;;;;;;;;;;5049621;28;19925;-68
2021/08/14 02:57:44;;;;;;;;;;;;;;;;;;5044875;28;19932;-69
2021/08/14 03:00:11;;;;;;;;;;;;;;;;;;5046316;28;19931;-68
2021/08/14 03:02:38;;;;;;;;;;;;;;;;;;5045617;28;19931;-69
2021/08/14 03:05:05;;;;;;;;;;;;;;;;;;5049798;28;20282;-69
2021/08/14 03:07:32;;;;;;;;;;;;;;;;;;5051239;28;19939;-68
2021/08/14 03:09:59;;;;;;;;;;;;;;;;;;5051669;28;19925;-68
2021/08/14 03:12:26;;;;;;;;;;;;;;;;;;5048130;28;20577;-69
2021/08/14 03:14:53;;;;;;;;;;;;;;;;;;5048352;28;19932;-70
2021/08/14 03:17:20;;;;;;;;;;;;;;;;;;5048091;28;19937;-69
2021/08/14 03:19:47;;;;;;;;;;;;;;;;;;5048048;28;19940;-70
2021/08/14 03:22:14;;;;;;;;;;;;;;;;;;5055371;28;20011;-70
2021/08/14 03:24:41;;;;;;;;;;;;;;;;;;5049128;28;19931;-71
2021/08/14 03:27:07;;;;;;;;;;;;;;;;;;5052044;28;19947;-70
2021/08/14 03:29:34;;;;;;;;;;;;;;;;;;5048413;28;19925;-70
2021/08/14 03:32:01;;;;;;;;;;;;;;;;;;5045294;28;19940;-70
2021/08/14 03:34:28;;;;;;;;;;;;;;;;;;5049809;28;20015;-70
2021/08/14 03:36:55;;;;;;;;;;;;;;;;;;5047465;28;19931;-70
2021/08/14 03:39:22;;;;;;;;;;;;;;;;;;5039512;28;19925;-69
2021/08/14 03:41:49;;;;;;;;;;;;;;;;;;5056774;22;19932;-68
2021/08/14 03:44:16;;;;;;;;;;;;;;;;;;5042615;28;20290;-69
2021/08/14 03:46:43;;;;;;;;;;;;;;;;;;5049195;28;19924;-68
2021/08/14 03:49:10;;;;;;;;;;;;;;;;;;5042044;28;19948;-68
2021/08/14 03:51:36;;;;;;;;;;;;;;;;;;5043482;28;19933;-68
2021/08/14 03:54:03;;;;;;;;;;;;;;;;;;5045258;28;19936;-68
2021/08/14 03:56:30;;;;;;;;;;;;;;;;;;5046070;28;19948;-68
2021/08/14 03:58:57;;;;;;;;;;;;;;;;;;5043747;28;19932;-68
2021/08/14 04:01:24;;;;;;;;;;;;;;;;;;5047379;28;20289;-69
2021/08/14 04:03:51;;;;;;;;;;;;;;;;;;5044561;28;19932;-68
2021/08/14 04:06:18;;;;;;;;;;;;;;;;;;5048791;28;19932;-68
2021/08/14 04:08:45;;;;;;;;;;;;;;;;;;5048251;28;19933;-68
2021/08/14 04:11:12;;;;;;;;;;;;;;;;;;5039323;28;19943;-68
2021/08/14 04:13:39;;;;;;;;;;;;;;;;;;5044920;28;20086;-68
2021/08/14 04:16:06;;;;;;;;;;;;;;;;;;5047254;28;19925;-68
2021/08/14 04:18:33;;;;;;;;;;;;;;;;;;5043887;28;19925;-68
2021/08/14 04:21:00;;;;;;;;;;;;;;;;;;5046779;28;19932;-69
2021/08/14 04:23:26;;;;;;;;;;;;;;;;;;5041528;28;19928;-68
2021/08/14 04:25:53;;;;;;;;;;;;;;;;;;5040636;28;19925;-69
2021/08/14 04:28:20;;;;;;;;;;;;;;;;;;5049557;28;19933;-69
2021/08/14 04:30:47;;;;;;;;;;;;;;;;;;5046651;28;20269;-68
2021/08/14 04:33:14;;;;;;;;;;;;;;;;;;5042181;28;19925;-68
2021/08/14 04:35:41;;;;;;;;;;;;;;;;;;5044492;28;20270;-68
2021/08/14 04:38:08;;;;;;;;;;;;;;;;;;5048090;28;19924;-68
2021/08/14 04:40:35;;;;;;;;;;;;;;;;;;5045086;28;19953;-69
2021/08/14 04:43:02;;;;;;;;;;;;;;;;;;5036382;28;19939;-68
2021/08/14 04:45:29;;;;;;;;;;;;;;;;;;5046820;28;19936;-68
2021/08/14 04:47:56;;;;;;;;;;;;;;;;;;5041074;28;19932;-68
2021/08/14 04:50:23;;;;;;;;;;;;;;;;;;5042839;28;19947;-68
2021/08/14 04:52:50;;;;;;;;;;;;;;;;;;5043168;28;19931;-68
2021/08/14 04:55:17;;;;;;;;;;;;;;;;;;5049622;28;20300;-68
2021/08/14 04:57:44;;;;;;;;;;;;;;;;;;5044401;28;20296;-68
2021/08/14 05:00:11;;;;;;;;;;;;;;;;;;5046191;28;20023;-68
2021/08/14 05:02:38;;;;;;;;;;;;;;;;;;5047751;28;19929;-69
2021/08/14 05:05:05;;;;;;;;;;;;;;;;;;5050169;28;19925;-68
2021/08/14 05:07:32;;;;;;;;;;;;;;;;;;5050112;28;19931;-68
2021/08/14 05:09:59;;;;;;;;;;;;;;;;;;5044176;28;19928;-69
2021/08/14 05:12:25;;;;;;;;;;;;;;;;;;5052823;28;19933;-68
2021/08/14 05:14:52;;;;;;;;;;;;;;;;;;5053162;28;19925;-68
2021/08/14 05:17:19;;;;;;;;;;;;;;;;;;5048774;28;19925;-69
2021/08/14 05:19:46;;;;;;;;;;;;;;;;;;5047157;28;19929;-67
2021/08/14 05:22:13;;;;;;;;;;;;;;;;;;5051844;28;19924;-66
2021/08/14 05:24:40;;;;;;;;;;;;;;;;;;5053023;28;20688;-67
2021/08/14 05:27:07;;;;;;;;;;;;;;;;;;5050278;28;19925;-67
2021/08/14 05:29:34;;;;;;;;;;;;;;;;;;5047403;28;19925;-68
2021/08/14 05:32:01;;;;;;;;;;;;;;;;;;5044871;28;20013;-67
2021/08/14 05:34:28;;;;;;;;;;;;;;;;;;5050678;28;19925;-68
2021/08/14 05:36:55;;;;;;;;;;;;;;;;;;5049177;28;19933;-68
2021/08/14 05:39:22;;;;;;;;;;;;;;;;;;5046198;28;19933;-68
2021/08/14 05:41:52;;;;;;;;;;;;;;;;;;5051227;28;19925;-67
2021/08/14 05:44:19;;;;;;;;;;;;;;;;;;5051236;28;19924;-67
2021/08/14 05:46:46;;;;;;;;;;;;;;;;;;5050133;28;19924;-67
2021/08/14 05:49:13;;;;;;;;;;;;;;;;;;5052686;28;19929;-67
2021/08/14 05:51:41;;;;;;;;;;;;;;;;;;5051917;28;19928;-67
2021/08/14 05:54:08;;;;;;;;;;;;;;;;;;5050069;28;19978;-68
2021/08/14 05:56:35;;;;;;;;;;;;;;;;;;5050730;28;19924;-67
2021/08/14 05:59:02;;;;;;;;;;;;;;;;;;5050218;28;19925;-67
2021/08/14 06:01:29;;;;;;;;;;;;;;;;;;5053749;28;19932;-67
2021/08/14 06:03:56;;;;;;;;;;;;;;;;;;5047985;28;20396;-67
2021/08/14 06:06:23;;;;;;;;;;;;;;;;;;5049584;28;19928;-68
2021/08/14 06:08:51;;;;;;;;;;;;;;;;;;5050562;28;19943;-68
2021/08/14 06:11:17;;;;;;;;;;;;;;;;;;5050457;28;19932;-67
2021/08/14 06:13:44;;;;;;;;;;;;;;;;;;5048757;28;19933;-68
2021/08/14 06:16:13;;;;;;;;;;;;;;;;;;5047967;28;19948;-68
2021/08/14 06:18:41;;;;;;;;;;;;;;;;;;5048626;28;19936;-68
2021/08/14 06:21:08;;;;;;;;;;;;;;;;;;5046581;28;19925;-67
2021/08/14 06:23:35;;;;;;;;;;;;;;;;;;5049228;28;20365;-66
2021/08/14 06:26:02;;;;;;;;;;;;;;;;;;5045048;28;19929;-68
2021/08/14 06:28:29;;;;;;;;;;;;;;;;;;5049602;28;19925;-67
2021/08/14 06:30:55;;;;;;;;;;;;;;;;;;5046501;28;20297;-67
2021/08/14 06:33:22;;;;;;;;;;;;;;;;;;5051810;28;19951;-69
2021/08/14 06:35:49;;;;;;;;;;;;;;;;;;5049432;28;19925;-67
2021/08/14 06:38:16;;;;;;;;;;;;;;;;;;5050810;28;19929;-67
2021/08/14 06:40:43;;;;;;;;;;;;;;;;;;5051402;28;19933;-68
2021/08/14 06:43:10;;;;;;;;;;;;;;;;;;5049901;28;19959;-67
2021/08/14 06:45:37;;;;;;;;;;;;;;;;;;5049875;28;19932;-67
2021/08/14 06:48:04;;;;;;;;;;;;;;;;;;5046987;28;19928;-68
2021/08/14 06:50:31;;;;;;;;;;;;;;;;;;5048680;28;19925;-67
2021/08/14 06:52:58;;;;;;;;;;;;;;;;;;5051887;28;19932;-67
2021/08/14 06:55:25;;;;;;;;;;;;;;;;;;5047847;28;20302;-67
2021/08/14 06:57:52;;;;;;;;;;;;;;;;;;5049022;28;19929;-68
2021/08/14 07:00:19;;;;;;;;;;;;;;;;;;5049114;28;19935;-67
2021/08/14 07:02:46;;;;;;;;;;;;;;;;;;5040283;28;20042;-68
2021/08/14 07:05:13;;;;;;;;;;;;;;;;;;5050300;28;19941;-67
2021/08/14 07:07:40;;;;;;;;;;;;;;;;;;5048215;28;19934;-67
2021/08/14 07:10:06;;;;;;;;;;;;;;;;;;5055748;28;19933;-68
2021/08/14 07:12:33;;;;;;;;;;;;;;;;;;5056882;28;19925;-67
2021/08/14 07:15:00;;;;;;;;;;;;;;;;;;5051851;28;19931;-68
2021/08/14 07:17:27;;;;;;;;;;;;;;;;;;5056918;28;19929;-66
2021/08/14 07:19:54;;;;;;;;;;;;;;;;;;5051293;28;19925;-67
2021/08/14 07:22:21;;;;;;;;;;;;;;;;;;5051847;28;19996;-67
2021/08/14 07:24:48;;;;;;;;;;;;;;;;;;5048590;28;19924;-66
2021/08/14 07:27:15;;;;;;;;;;;;;;;;;;5049135;28;20548;-67
2021/08/14 07:29:42;;;;;;;;;;;;;;;;;;5049114;28;20023;-66
2021/08/14 07:32:11;;;;;;;;;;;;;;;;;;5048777;28;19925;-67
2021/08/14 07:34:38;;;;;;;;;;;;;;;;;;5051352;28;19931;-66
2021/08/14 07:37:05;;;;;;;;;;;;;;;;;;5046894;28;20011;-67
2021/08/14 07:39:32;;;;;;;;;;;;;;;;;;5047006;28;19932;-67
2021/08/14 07:41:59;;;;;;;;;;;;;;;;;;5054123;28;19932;-67
2021/08/14 07:44:25;;;;;;;;;;;;;;;;;;5051999;28;19925;-68
2021/08/14 07:46:52;;;;;;;;;;;;;;;;;;5058335;28;19933;-67
2021/08/14 07:49:19;;;;;;;;;;;;;;;;;;5053828;28;20015;-67
2021/08/14 07:51:46;;;;;;;;;;;;;;;;;;5060273;28;20288;-66
2021/08/14 07:54:13;;;;;;;;;;;;;;;;;;5057290;28;19925;-66
2021/08/14 07:56:40;;;;;;;;;;;;;;;;;;5061742;28;19943;-66
2021/08/14 07:59:07;;;;;;;;;;;;;;;;;;5063829;28;19947;-66
2021/08/14 08:01:34;;;;;;;;;;;;;;;;;;5062842;28;19951;-68
2021/08/14 08:04:01;;;;;;;;;;;;;;;;;;5061734;28;19931;-67
2021/08/14 08:06:28;;;;;;;;;;;;;;;;;;5062377;28;20467;-68
2021/08/14 08:08:55;;;;;;;;;;;;;;;;;;5059005;28;20392;-65
2021/08/14 08:11:22;;;;;;;;;;;;;;;;;;5057791;28;20433;-67
2021/08/14 08:13:49;;;;;;;;;;;;;;;;;;5061090;28;20212;-66
2021/08/14 08:16:16;;;;;;;;;;;;;;;;;;5056390;28;19963;-66
2021/08/14 08:18:43;;;;;;;;;;;;;;;;;;5046547;28;19933;-66
2021/08/14 08:21:10;;;;;;;;;;;;;;;;;;5042244;28;19931;-68
2021/08/14 08:23:38;;;;;;;;;;;;;;;;;;5047476;28;20572;-68
2021/08/14 08:26:05;;;;;;;;;;;;;;;;;;5041728;28;19940;-69
2021/08/14 08:28:32;;;;;;;;;;;;;;;;;;5041441;28;19925;-68
2021/08/14 08:30:59;;;;;;;;;;;;;;;;;;5037311;28;19925;-66
2021/08/14 08:33:26;;;;;;;;;;;;;;;;;;5043233;28;19925;-68
2021/08/14 08:35:53;;;;;;;;;;;;;;;;;;5039939;28;19935;-67
2021/08/14 08:38:20;;;;;;;;;;;;;;;;;;5045199;28;19929;-66
2021/08/14 08:40:49;;;;;;;;;;;;;;;;;;5049889;28;20561;-67
2021/08/14 08:43:16;;;;;;;;;;;;;;;;;;5048611;28;20309;-66
2021/08/14 08:45:43;;;;;;;;;;;;;;;;;;5050547;28;19933;-68
2021/08/14 08:48:10;;;;;;;;;;;;;;;;;;5051203;28;19924;-67
2021/08/14 08:50:37;;;;;;;;;;;;;;;;;;5047044;28;20208;-68
2021/08/14 08:53:04;;;;;;;;;;;;;;;;;;5047698;28;19928;-67
2021/08/14 08:55:31;;;;;;;;;;;;;;;;;;5044365;28;20342;-67
2021/08/14 08:57:58;;;;;;;;;;;;;;;;;;5046108;28;20411;-67
2021/08/14 09:00:25;;;;;;;;;;;;;;;;;;5052447;28;19932;-67
2021/08/14 09:02:52;;;;;;;;;;;;;;;;;;5050775;28;19925;-67
2021/08/14 09:05:19;;;;;;;;;;;;;;;;;;5045943;28;19928;-67
2021/08/14 09:07:46;;;;;;;;;;;;;;;;;;5048538;28;19996;-68
2021/08/14 09:10:13;;;;;;;;;;;;;;;;;;5049687;28;19928;-67
2021/08/14 09:12:41;;;;;;;;;;;;;;;;;;5051223;28;19971;-66
2021/08/14 09:15:08;;;;;;;;;;;;;;;;;;5049434;28;19929;-67
2021/08/14 09:17:35;;;;;;;;;;;;;;;;;;5046127;28;19932;-68
2021/08/14 09:20:02;;;;;;;;;;;;;;;;;;5042510;28;19955;-69
2021/08/14 09:22:29;;;;;;;;;;;;;;;;;;5045348;28;19928;-67
2021/08/14 09:24:57;;;;;;;;;;;;;;;;;;5045412;28;19939;-67
2021/08/14 09:27:24;;;;;;;;;;;;;;;;;;5048169;28;19925;-66
2021/08/14 09:29:51;;;;;;;;;;;;;;;;;;5045948;28;19941;-66
2021/08/14 09:32:25;;;;;;;;;;;;;;;;;;5050858;28;19929;-67
2021/08/14 09:34:52;;;;;;;;;;;;;;;;;;5053397;28;20277;-67
2021/08/14 09:37:19;;;;;;;;;;;;;;;;;;5047282;28;19925;-65
2021/08/14 09:39:46;;;;;;;;;;;;;;;;;;5049828;28;19994;-64
2021/08/14 09:42:13;;;;;;;;;;;;;;;;;;5058379;22;19924;-66
2021/08/14 09:44:40;;;;;;;;;;;;;;;;;;5050894;28;20308;-66
2021/08/14 09:47:11;;;;;;;;;;;;;;;;;;5038196;28;19925;-66
2021/08/14 09:49:38;;;;;;;;;;;;;;;;;;5046458;28;19951;-66
2021/08/14 09:52:05;;;;;;;;;;;;;;;;;;5043211;28;19931;-66
2021/08/14 09:54:32;;;;;;;;;;;;;;;;;;5042369;28;19933;-66
2021/08/14 09:56:59;;;;;;;;;;;;;;;;;;5043015;28;19933;-66
2021/08/14 09:59:26;;;;;;;;;;;;;;;;;;5045249;28;20135;-66
2021/08/14 10:01:52;;;;;;;;;;;;;;;;;;5040221;28;19932;-67
2021/08/14 10:04:19;;;;;;;;;;;;;;;;;;5042683;28;19947;-66
2021/08/14 10:06:47;;;;;;;;;;;;;;;;;;5042954;28;19940;-67
2021/08/14 10:09:15;;;;;;;;;;;;;;;;;;5046958;28;19929;-66
2021/08/14 10:11:42;;;;;;;;;;;;;;;;;;5040671;28;19933;-67
2021/08/14 10:14:09;;;;;;;;;;;;;;;;;;5045458;28;20238;-67
2021/08/14 10:16:36;;;;;;;;;;;;;;;;;;5046470;28;19928;-67
2021/08/14 10:19:03;;;;;;;;;;;;;;;;;;5043067;28;19939;-67
2021/08/14 10:21:30;;;;;;;;;;;;;;;;;;5046754;28;19936;-67
2021/08/14 10:23:57;;;;;;;;;;;;;;;;;;5044487;28;19961;-67
2021/08/14 10:26:24;;;;;;;;;;;;;;;;;;5044417;28;19950;-67
2021/08/14 10:28:51;;;;;;;;;;;;;;;;;;5043548;28;19929;-67
2021/08/14 10:31:18;;;;;;;;;;;;;;;;;;5039583;28;19924;-68
2021/08/14 10:33:45;;;;;;;;;;;;;;;;;;5041477;28;19925;-68
2021/08/14 10:36:12;;;;;;;;;;;;;;;;;;5042769;28;19929;-66
2021/08/14 10:38:39;;;;;;;;;;;;;;;;;;5046666;28;20319;-68
2021/08/14 10:41:06;;;;;;;;;;;;;;;;;;5047861;28;19929;-67
2021/08/14 10:43:33;;;;;;;;;;;;;;;;;;5043285;28;20314;-67
2021/08/14 10:46:00;;;;;;;;;;;;;;;;;;5042087;28;19947;-66
2021/08/14 10:48:27;;;;;;;;;;;;;;;;;;5042493;28;20640;-66
2021/08/14 10:50:54;;;;;;;;;;;;;;;;;;5043990;28;20277;-67
2021/08/14 10:53:23;;;;;;;;;;;;;;;;;;5044303;28;19928;-68
2021/08/14 10:55:50;;;;;;;;;;;;;;;;;;5040838;28;19929;-67
2021/08/14 10:58:16;;;;;;;;;;;;;;;;;;5045389;28;19925;-67
2021/08/14 11:00:43;;;;;;;;;;;;;;;;;;5040107;28;19924;-68
2021/08/14 11:03:10;;;;;;;;;;;;;;;;;;5039754;28;19933;-67
2021/08/14 11:05:37;;;;;;;;;;;;;;;;;;5050873;28;19924;-68
2021/08/14 11:08:04;;;;;;;;;;;;;;;;;;5047962;28;19925;-68
2021/08/14 11:10:31;;;;;;;;;;;;;;;;;;5041054;28;19929;-67
2021/08/14 11:12:58;;;;;;;;;;;;;;;;;;5043904;28;20278;-68
2021/08/14 11:15:25;;;;;;;;;;;;;;;;;;5049029;28;19935;-66
2021/08/14 11:17:52;;;;;;;;;;;;;;;;;;5041619;28;20415;-67
2021/08/14 11:20:19;;;;;;;;;;;;;;;;;;5039852;28;19932;-67
2021/08/14 11:22:46;;;;;;;;;;;;;;;;;;5040355;28;19925;-67
2021/08/14 11:25:13;;;;;;;;;;;;;;;;;;5044008;28;20365;-67
2021/08/14 11:27:40;;;;;;;;;;;;;;;;;;5040727;28;19931;-67
2021/08/14 11:30:07;;;;;;;;;;;;;;;;;;5047935;28;19925;-67
2021/08/14 11:32:33;;;;;;;;;;;;;;;;;;5044390;28;20392;-67
2021/08/14 11:35:00;;;;;;;;;;;;;;;;;;5048471;28;19940;-67
2021/08/14 11:37:27;;;;;;;;;;;;;;;;;;5051159;28;19924;-67
2021/08/14 11:39:54;;;;;;;;;;;;;;;;;;5043793;28;19925;-67
2021/08/14 11:42:22;;;;;;;;;;;;;;;;;;5046539;28;19925;-68
2021/08/14 11:44:49;;;;;;;;;;;;;;;;;;5047309;28;19924;-67
2021/08/14 11:47:16;;;;;;;;;;;;;;;;;;5041275;28;19947;-67
2021/08/14 11:49:43;;;;;;;;;;;;;;;;;;5045671;28;19929;-67
2021/08/14 11:52:10;;;;;;;;;;;;;;;;;;5040539;28;19924;-68
2021/08/14 11:54:37;;;;;;;;;;;;;;;;;;5044355;28;19974;-67
2021/08/14 11:57:04;;;;;;;;;;;;;;;;;;5048373;28;20244;-68
2021/08/14 11:59:30;;;;;;;;;;;;;;;;;;5042029;28;19947;-68
2021/08/14 12:01:57;;;;;;;;;;;;;;;;;;5050093;28;20396;-67
2021/08/14 12:04:24;;;;;;;;;;;;;;;;;;5051320;28;19987;-67
2021/08/14 12:06:51;;;;;;;;;;;;;;;;;;5042667;28;20389;-67
2021/08/14 12:09:18;;;;;;;;;;;;;;;;;;5032608;28;19925;-67
2021/08/14 12:11:45;;;;;;;;;;;;;;;;;;5047581;28;19926;-68
2021/08/14 12:14:12;;;;;;;;;;;;;;;;;;5057505;28;20027;-67
2021/08/14 12:16:39;;;;;;;;;;;;;;;;;;5047371;28;19986;-68
2021/08/14 12:19:06;;;;;;;;;;;;;;;;;;5044416;28;20011;-68
2021/08/14 12:21:33;;;;;;;;;;;;;;;;;;5054738;28;19931;-68
2021/08/14 12:24:00;;;;;;;;;;;;;;;;;;5054554;28;19929;-69
2021/08/14 12:26:27;;;;;;;;;;;;;;;;;;5048129;28;20288;-68
2021/08/14 12:28:54;;;;;;;;;;;;;;;;;;5048699;28;19925;-68
2021/08/14 12:31:21;;;;;;;;;;;;;;;;;;5051382;28;19924;-68
2021/08/14 12:33:48;;;;;;;;;;;;;;;;;;5057008;28;19932;-68
2021/08/14 12:36:15;;;;;;;;;;;;;;;;;;5048160;28;19929;-68
2021/08/14 12:38:42;;;;;;;;;;;;;;;;;;5052859;28;19925;-68
2021/08/14 12:41:09;;;;;;;;;;;;;;;;;;5044156;28;19931;-68
2021/08/14 12:43:36;;;;;;;;;;;;;;;;;;5049626;28;19936;-67
2021/08/14 12:46:03;;;;;;;;;;;;;;;;;;5048492;28;20019;-68
2021/08/14 12:48:30;;;;;;;;;;;;;;;;;;5049208;28;19928;-68
2021/08/14 12:50:57;;;;;;;;;;;;;;;;;;5049076;28;19968;-68
2021/08/14 12:53:24;;;;;;;;;;;;;;;;;;5046142;28;20197;-68
2021/08/14 12:55:51;;;;;;;;;;;;;;;;;;5052039;28;19932;-69
2021/08/14 12:58:18;;;;;;;;;;;;;;;;;;5045738;28;19932;-67
2021/08/14 13:00:44;;;;;;;;;;;;;;;;;;5043018;28;20535;-69
2021/08/14 13:03:11;;;;;;;;;;;;;;;;;;5040002;28;20395;-66
2021/08/14 13:05:38;;;;;;;;;;;;;;;;;;5047341;28;19933;-65
2021/08/14 13:08:05;;;;;;;;;;;;;;;;;;5046386;28;19951;-66
2021/08/14 13:10:32;;;;;;;;;;;;;;;;;;5044241;28;19936;-66
2021/08/14 13:12:59;;;;;;;;;;;;;;;;;;5047680;28;19925;-64
2021/08/14 13:15:26;;;;;;;;;;;;;;;;;;5047390;28;19970;-66
2021/08/14 13:17:53;;;;;;;;;;;;;;;;;;5050705;28;19925;-68
2021/08/14 13:20:20;;;;;;;;;;;;;;;;;;5046238;28;20399;-68
2021/08/14 13:22:47;;;;;;;;;;;;;;;;;;5046572;28;19932;-67
2021/08/14 13:25:14;;;;;;;;;;;;;;;;;;5043506;28;20015;-68
2021/08/14 13:27:41;;;;;;;;;;;;;;;;;;5045982;28;19932;-68
2021/08/14 13:30:08;;;;;;;;;;;;;;;;;;5041945;28;20797;-68
2021/08/14 13:32:35;;;;;;;;;;;;;;;;;;5044498;28;19926;-68
2021/08/14 13:35:02;;;;;;;;;;;;;;;;;;5045648;28;19929;-68
2021/08/14 13:37:29;;;;;;;;;;;;;;;;;;5044866;28;19925;-66
2021/08/14 13:39:56;;;;;;;;;;;;;;;;;;5043189;28;19931;-66
2021/08/14 13:42:23;;;;;;;;;;;;;;;;;;5045994;28;19929;-67
2021/08/14 13:44:50;;;;;;;;;;;;;;;;;;5047202;28;19928;-67
2021/08/14 13:47:17;;;;;;;;;;;;;;;;;;5043487;28;19928;-67
2021/08/14 13:49:43;;;;;;;;;;;;;;;;;;5044422;28;19931;-68
2021/08/14 13:52:10;;;;;;;;;;;;;;;;;;5042268;28;19932;-66
2021/08/14 13:54:37;;;;;;;;;;;;;;;;;;5046394;28;19924;-69
2021/08/14 13:57:04;;;;;;;;;;;;;;;;;;5047085;28;19931;-68
2021/08/14 13:59:31;;;;;;;;;;;;;;;;;;5042696;28;19935;-68
2021/08/14 14:01:58;;;;;;;;;;;;;;;;;;5045069;28;19933;-68
2021/08/14 14:04:25;;;;;;;;;;;;;;;;;;5046487;28;20392;-68
2021/08/14 14:06:52;;;;;;;;;;;;;;;;;;5047186;28;20407;-67
2021/08/14 14:09:20;;;;;;;;;;;;;;;;;;5046124;28;19968;-67
2021/08/14 14:11:47;;;;;;;;;;;;;;;;;;5042582;28;19932;-66
2021/08/14 14:14:14;;;;;;;;;;;;;;;;;;5046744;28;19947;-67
2021/08/14 14:16:41;;;;;;;;;;;;;;;;;;5047193;28;19925;-69
2021/08/14 14:19:07;;;;;;;;;;;;;;;;;;5044005;28;19925;-70
2021/08/14 14:21:34;;;;;;;;;;;;;;;;;;5046982;28;19932;-67
2021/08/14 14:24:01;;;;;;;;;;;;;;;;;;5047187;28;19925;-67
2021/08/14 14:26:28;;;;;;;;;;;;;;;;;;5046626;28;19933;-69
2021/08/14 14:28:55;;;;;;;;;;;;;;;;;;5046161;28;20027;-67
2021/08/14 14:31:22;;;;;;;;;;;;;;;;;;5042871;28;19932;-67
2021/08/14 14:33:49;;;;;;;;;;;;;;;;;;5043310;28;20052;-68
2021/08/14 14:36:16;;;;;;;;;;;;;;;;;;5040250;28;20572;-68
2021/08/14 14:38:43;;;;;;;;;;;;;;;;;;5044951;28;19940;-68
2021/08/14 14:41:10;;;;;;;;;;;;;;;;;;5041991;28;19926;-68
2021/08/14 14:43:38;;;;;;;;;;;;;;;;;;5048123;28;20078;-67
2021/08/14 14:46:05;;;;;;;;;;;;;;;;;;5045659;28;19979;-68
2021/08/14 14:48:32;;;;;;;;;;;;;;;;;;5045408;28;19925;-68
2021/08/14 14:50:59;;;;;;;;;;;;;;;;;;5040058;28;19929;-68
2021/08/14 14:53:26;;;;;;;;;;;;;;;;;;5045866;28;20524;-68
2021/08/14 14:55:53;;;;;;;;;;;;;;;;;;5045736;28;19925;-68
2021/08/14 14:58:20;;;;;;;;;;;;;;;;;;5046073;28;19940;-67
2021/08/14 15:00:47;;;;;;;;;;;;;;;;;;5045804;28;19925;-68
2021/08/14 15:03:13;;;;;;;;;;;;;;;;;;5043733;28;19936;-68
2021/08/14 15:05:40;;;;;;;;;;;;;;;;;;5047302;28;20377;-67
2021/08/14 15:08:07;;;;;;;;;;;;;;;;;;5045417;28;19925;-67
2021/08/14 15:10:34;;;;;;;;;;;;;;;;;;5042283;28;19924;-68
2021/08/14 15:13:01;;;;;;;;;;;;;;;;;;5047144;28;19925;-67
2021/08/14 15:15:28;;;;;;;;;;;;;;;;;;5039410;28;20248;-67
2021/08/14 15:17:55;;;;;;;;;;;;;;;;;;5040713;28;19933;-68
2021/08/14 15:20:22;;;;;;;;;;;;;;;;;;5038670;28;19932;-68
2021/08/14 15:22:49;;;;;;;;;;;;;;;;;;5041778;28;19929;-67
2021/08/14 15:25:16;;;;;;;;;;;;;;;;;;5045797;28;19925;-68
2021/08/14 15:27:43;;;;;;;;;;;;;;;;;;5037348;28;20383;-67
2021/08/14 15:30:10;;;;;;;;;;;;;;;;;;5038063;28;19925;-68
2021/08/14 15:32:37;;;;;;;;;;;;;;;;;;5041139;28;19947;-67
2021/08/14 15:35:04;;;;;;;;;;;;;;;;;;5043217;28;19936;-68
2021/08/14 15:37:31;;;;;;;;;;;;;;;;;;5045664;28;19924;-68
2021/08/14 15:39:57;;;;;;;;;;;;;;;;;;5043582;28;19924;-68
2021/08/14 15:42:24;;;;;;;;;;;;;;;;;;5044305;28;20287;-68
2021/08/14 15:44:51;;;;;;;;;;;;;;;;;;5044218;28;19924;-71
2021/08/14 15:47:19;;;;;;;;;;;;;;;;;;5043422;28;19925;-67
2021/08/14 15:49:46;;;;;;;;;;;;;;;;;;5044240;28;19936;-67
2021/08/14 15:52:12;;;;;;;;;;;;;;;;;;5043427;28;19955;-67
2021/08/14 15:54:39;;;;;;;;;;;;;;;;;;5041451;28;19932;-68
2021/08/14 15:57:06;;;;;;;;;;;;;;;;;;5044785;28;19925;-68
2021/08/14 15:59:33;;;;;;;;;;;;;;;;;;5041758;28;19929;-68
2021/08/14 16:02:00;;;;;;;;;;;;;;;;;;5050225;28;19992;-63
2021/08/14 16:04:27;;;;;;;;;;;;;;;;;;5047210;28;19924;-66
2021/08/14 16:06:54;;;;;;;;;;;;;;;;;;5046058;28;20024;-66
2021/08/14 16:09:21;;;;;;;;;;;;;;;;;;5042587;28;19929;-66
2021/08/14 16:11:48;;;;;;;;;;;;;;;;;;5043783;28;19933;-65
2021/08/14 16:14:17;;;;;;;;;;;;;;;;;;5041488;28;19925;-65
2021/08/14 16:16:43;;;;;;;;;;;;;;;;;;5043072;28;19928;-65
2021/08/14 16:19:10;;;;;;;;;;;;;;;;;;5045411;28;19928;-66
2021/08/14 16:21:37;;;;;;;;;;;;;;;;;;5042026;28;19935;-65
2021/08/14 16:24:04;;;;;;;;;;;;;;;;;;5040284;28;19925;-65
2021/08/14 16:26:31;;;;;;;;;;;;;;;;;;5038365;28;20373;-65
2021/08/14 16:28:58;;;;;;;;;;;;;;;;;;5045151;28;19929;-64
2021/08/14 16:31:25;;;;;;;;;;;;;;;;;;5039852;28;19924;-65
2021/08/14 16:33:52;;;;;;;;;;;;;;;;;;5042673;28;20377;-65
2021/08/14 16:36:19;;;;;;;;;;;;;;;;;;5044667;28;20411;-65
2021/08/14 16:38:46;;;;;;;;;;;;;;;;;;5041998;28;19929;-66
2021/08/14 16:41:13;;;;;;;;;;;;;;;;;;5041763;28;19978;-66
2021/08/14 16:43:41;;;;;;;;;;;;;;;;;;5044932;28;19925;-66